sensor_id;sensor_type;location;lat;lon;timestamp;P1;durP1;ratioP1;P2;durP2;ratioP2
19679;SDS011;9989;48.962;9.182;2024-02-26T00:02:14;6.50;;;3.13;;
19679;SDS011;9989;48.962;9.182;2024-02-26T00:04:40;5.80;;;2.47;;
19679;SDS011;9989;48.962;9.182;2024-02-26T00:07:06;5.83;;;2.40;;
19679;SDS011;9989;48.962;9.182;2024-02-26T00:09:31;5.20;;;2.40;;
19679;SDS011;9989;48.962;9.182;2024-02-26T00:12:00;5.40;;;2.43;;
19679;SDS011;9989;48.962;9.182;2024-02-26T00:14:26;9.67;;;2.80;;
19679;SDS011;9989;48.962;9.182;2024-02-26T00:16:52;7.33;;;3.00;;
19679;SDS011;9989;48.962;9.182;2024-02-26T00:19:17;5.50;;;2.53;;
19679;SDS011;9989;48.962;9.182;2024-02-26T00:21:43;6.90;;;2.60;;
19679;SDS011;9989;48.962;9.182;2024-02-26T00:24:08;6.70;;;2.67;;
19679;SDS011;9989;48.962;9.182;2024-02-26T00:26:34;6.67;;;2.43;;
19679;SDS011;9989;48.962;9.182;2024-02-26T00:29:00;5.97;;;2.63;;
19679;SDS011;9989;48.962;9.182;2024-02-26T00:31:25;5.97;;;2.50;;
19679;SDS011;9989;48.962;9.182;2024-02-26T00:33:51;6.53;;;2.60;;
19679;SDS011;9989;48.962;9.182;2024-02-26T00:36:16;5.50;;;2.50;;
19679;SDS011;9989;48.962;9.182;2024-02-26T00:38:43;6.10;;;2.53;;
19679;SDS011;9989;48.962;9.182;2024-02-26T00:41:11;6.10;;;2.70;;
19679;SDS011;9989;48.962;9.182;2024-02-26T00:43:36;6.53;;;2.50;;
19679;SDS011;9989;48.962;9.182;2024-02-26T00:46:04;5.27;;;2.47;;
19679;SDS011;9989;48.962;9.182;2024-02-26T00:51:00;5.87;;;2.47;;
19679;SDS011;9989;48.962;9.182;2024-02-26T00:53:26;7.27;;;2.70;;
19679;SDS011;9989;48.962;9.182;2024-02-26T00:55:53;5.43;;;2.43;;
19679;SDS011;9989;48.962;9.182;2024-02-26T00:58:19;7.50;;;2.43;;
19679;SDS011;9989;48.962;9.182;2024-02-26T01:00:45;6.07;;;2.67;;
19679;SDS011;9989;48.962;9.182;2024-02-26T01:03:10;5.47;;;2.20;;
19679;SDS011;9989;48.962;9.182;2024-02-26T01:05:36;4.13;;;2.00;;
19679;SDS011;9989;48.962;9.182;2024-02-26T01:08:03;5.13;;;2.20;;
19679;SDS011;9989;48.962;9.182;2024-02-26T01:10:29;5.90;;;2.33;;
19679;SDS011;9989;48.962;9.182;2024-02-26T01:12:54;6.03;;;2.30;;
19679;SDS011;9989;48.962;9.182;2024-02-26T01:15:20;5.53;;;2.50;;
19679;SDS011;9989;48.962;9.182;2024-02-26T01:17:48;4.53;;;2.10;;
19679;SDS011;9989;48.962;9.182;2024-02-26T01:20:14;6.17;;;2.83;;
19679;SDS011;9989;48.962;9.182;2024-02-26T01:22:40;7.17;;;2.83;;
19679;SDS011;9989;48.962;9.182;2024-02-26T01:25:07;4.57;;;2.20;;
19679;SDS011;9989;48.962;9.182;2024-02-26T01:27:33;6.00;;;2.40;;
19679;SDS011;9989;48.962;9.182;2024-02-26T01:29:58;5.47;;;2.30;;
19679;SDS011;9989;48.962;9.182;2024-02-26T01:32:24;5.83;;;2.60;;
19679;SDS011;9989;48.962;9.182;2024-02-26T01:34:49;6.30;;;2.50;;
19679;SDS011;9989;48.962;9.182;2024-02-26T01:37:15;6.83;;;2.87;;
19679;SDS011;9989;48.962;9.182;2024-02-26T01:39:40;5.60;;;2.40;;
19679;SDS011;9989;48.962;9.182;2024-02-26T01:42:06;5.27;;;2.43;;
19679;SDS011;9989;48.962;9.182;2024-02-26T01:44:32;6.13;;;2.40;;
19679;SDS011;9989;48.962;9.182;2024-02-26T01:46:58;5.80;;;2.50;;
19679;SDS011;9989;48.962;9.182;2024-02-26T01:49:26;5.47;;;2.47;;
19679;SDS011;9989;48.962;9.182;2024-02-26T01:51:53;5.77;;;2.37;;
19679;SDS011;9989;48.962;9.182;2024-02-26T01:54:20;5.50;;;2.17;;
19679;SDS011;9989;48.962;9.182;2024-02-26T01:56:46;5.77;;;2.33;;
19679;SDS011;9989;48.962;9.182;2024-02-26T01:59:12;7.10;;;2.40;;
19679;SDS011;9989;48.962;9.182;2024-02-26T02:01:38;7.27;;;2.63;;
19679;SDS011;9989;48.962;9.182;2024-02-26T02:04:07;4.50;;;2.00;;
19679;SDS011;9989;48.962;9.182;2024-02-26T02:06:32;6.50;;;2.40;;
19679;SDS011;9989;48.962;9.182;2024-02-26T02:08:58;6.97;;;2.47;;
19679;SDS011;9989;48.962;9.182;2024-02-26T02:11:25;5.73;;;2.30;;
19679;SDS011;9989;48.962;9.182;2024-02-26T02:13:51;6.23;;;2.67;;
19679;SDS011;9989;48.962;9.182;2024-02-26T02:16:17;7.40;;;3.00;;
19679;SDS011;9989;48.962;9.182;2024-02-26T02:18:42;6.67;;;2.90;;
19679;SDS011;9989;48.962;9.182;2024-02-26T02:21:09;6.63;;;2.90;;
19679;SDS011;9989;48.962;9.182;2024-02-26T02:23:34;9.10;;;2.87;;
19679;SDS011;9989;48.962;9.182;2024-02-26T02:26:00;7.57;;;3.13;;
19679;SDS011;9989;48.962;9.182;2024-02-26T02:28:26;6.90;;;3.13;;
19679;SDS011;9989;48.962;9.182;2024-02-26T02:30:52;7.57;;;3.33;;
19679;SDS011;9989;48.962;9.182;2024-02-26T02:33:19;7.77;;;2.80;;
19679;SDS011;9989;48.962;9.182;2024-02-26T02:35:44;6.93;;;2.90;;
19679;SDS011;9989;48.962;9.182;2024-02-26T02:38:10;6.27;;;2.90;;
19679;SDS011;9989;48.962;9.182;2024-02-26T02:40:36;6.20;;;3.00;;
19679;SDS011;9989;48.962;9.182;2024-02-26T02:43:02;8.93;;;3.23;;
19679;SDS011;9989;48.962;9.182;2024-02-26T02:45:27;10.07;;;3.53;;
19679;SDS011;9989;48.962;9.182;2024-02-26T02:47:53;8.90;;;3.33;;
19679;SDS011;9989;48.962;9.182;2024-02-26T02:50:19;8.13;;;3.70;;
19679;SDS011;9989;48.962;9.182;2024-02-26T02:52:45;6.57;;;2.70;;
19679;SDS011;9989;48.962;9.182;2024-02-26T02:55:10;7.07;;;2.77;;
19679;SDS011;9989;48.962;9.182;2024-02-26T02:57:36;6.00;;;2.70;;
19679;SDS011;9989;48.962;9.182;2024-02-26T03:00:06;6.00;;;2.40;;
19679;SDS011;9989;48.962;9.182;2024-02-26T03:02:33;6.37;;;2.77;;
19679;SDS011;9989;48.962;9.182;2024-02-26T03:05:00;6.13;;;2.90;;
19679;SDS011;9989;48.962;9.182;2024-02-26T03:07:27;6.73;;;2.80;;
19679;SDS011;9989;48.962;9.182;2024-02-26T03:09:53;7.17;;;3.10;;
19679;SDS011;9989;48.962;9.182;2024-02-26T03:12:18;9.53;;;3.67;;
19679;SDS011;9989;48.962;9.182;2024-02-26T03:14:44;7.70;;;3.23;;
19679;SDS011;9989;48.962;9.182;2024-02-26T03:17:10;7.00;;;3.20;;
19679;SDS011;9989;48.962;9.182;2024-02-26T03:19:35;7.33;;;3.50;;
19679;SDS011;9989;48.962;9.182;2024-02-26T03:22:01;8.40;;;3.93;;
19679;SDS011;9989;48.962;9.182;2024-02-26T03:24:27;8.80;;;3.80;;
19679;SDS011;9989;48.962;9.182;2024-02-26T03:26:52;6.53;;;3.23;;
19679;SDS011;9989;48.962;9.182;2024-02-26T03:29:18;8.40;;;3.00;;
19679;SDS011;9989;48.962;9.182;2024-02-26T03:31:44;6.80;;;3.20;;
19679;SDS011;9989;48.962;9.182;2024-02-26T03:34:09;7.60;;;3.43;;
19679;SDS011;9989;48.962;9.182;2024-02-26T03:36:37;6.43;;;3.10;;
19679;SDS011;9989;48.962;9.182;2024-02-26T03:39:03;7.00;;;3.63;;
19679;SDS011;9989;48.962;9.182;2024-02-26T03:41:32;6.30;;;2.83;;
19679;SDS011;9989;48.962;9.182;2024-02-26T03:43:58;8.43;;;3.20;;
19679;SDS011;9989;48.962;9.182;2024-02-26T03:46:24;6.97;;;3.20;;
19679;SDS011;9989;48.962;9.182;2024-02-26T03:48:49;6.53;;;2.83;;
19679;SDS011;9989;48.962;9.182;2024-02-26T03:51:15;8.43;;;3.20;;
19679;SDS011;9989;48.962;9.182;2024-02-26T03:53:40;7.03;;;2.70;;
19679;SDS011;9989;48.962;9.182;2024-02-26T03:56:06;6.07;;;2.70;;
19679;SDS011;9989;48.962;9.182;2024-02-26T03:58:32;6.60;;;3.07;;
19679;SDS011;9989;48.962;9.182;2024-02-26T04:00:59;5.70;;;2.47;;
19679;SDS011;9989;48.962;9.182;2024-02-26T04:03:25;5.77;;;2.40;;
19679;SDS011;9989;48.962;9.182;2024-02-26T04:05:50;6.87;;;2.87;;
19679;SDS011;9989;48.962;9.182;2024-02-26T04:08:16;5.90;;;2.70;;
19679;SDS011;9989;48.962;9.182;2024-02-26T04:10:42;7.43;;;3.07;;
19679;SDS011;9989;48.962;9.182;2024-02-26T04:13:07;7.13;;;3.03;;
19679;SDS011;9989;48.962;9.182;2024-02-26T04:15:33;6.53;;;2.70;;
19679;SDS011;9989;48.962;9.182;2024-02-26T04:17:59;5.97;;;2.63;;
19679;SDS011;9989;48.962;9.182;2024-02-26T04:20:24;6.77;;;2.77;;
19679;SDS011;9989;48.962;9.182;2024-02-26T04:22:50;6.57;;;2.70;;
19679;SDS011;9989;48.962;9.182;2024-02-26T04:25:16;5.17;;;2.37;;
19679;SDS011;9989;48.962;9.182;2024-02-26T04:27:42;7.93;;;2.60;;
19679;SDS011;9989;48.962;9.182;2024-02-26T04:30:07;6.17;;;2.57;;
19679;SDS011;9989;48.962;9.182;2024-02-26T04:32:33;6.23;;;2.67;;
19679;SDS011;9989;48.962;9.182;2024-02-26T04:34:59;6.60;;;2.93;;
19679;SDS011;9989;48.962;9.182;2024-02-26T04:37:25;6.50;;;2.87;;
19679;SDS011;9989;48.962;9.182;2024-02-26T04:39:59;6.50;;;2.63;;
19679;SDS011;9989;48.962;9.182;2024-02-26T04:42:25;6.00;;;2.80;;
19679;SDS011;9989;48.962;9.182;2024-02-26T04:44:50;5.80;;;2.70;;
19679;SDS011;9989;48.962;9.182;2024-02-26T04:47:16;7.07;;;2.63;;
19679;SDS011;9989;48.962;9.182;2024-02-26T04:49:41;7.30;;;2.70;;
19679;SDS011;9989;48.962;9.182;2024-02-26T04:52:07;6.20;;;2.50;;
19679;SDS011;9989;48.962;9.182;2024-02-26T04:54:33;7.73;;;4.00;;
19679;SDS011;9989;48.962;9.182;2024-02-26T04:56:58;9.00;;;4.00;;
19679;SDS011;9989;48.962;9.182;2024-02-26T04:59:24;9.57;;;4.00;;
19679;SDS011;9989;48.962;9.182;2024-02-26T05:01:49;7.43;;;3.13;;
19679;SDS011;9989;48.962;9.182;2024-02-26T05:04:17;6.33;;;3.00;;
19679;SDS011;9989;48.962;9.182;2024-02-26T05:06:43;7.67;;;3.00;;
19679;SDS011;9989;48.962;9.182;2024-02-26T05:09:08;5.37;;;2.47;;
19679;SDS011;9989;48.962;9.182;2024-02-26T05:11:34;5.47;;;2.23;;
19679;SDS011;9989;48.962;9.182;2024-02-26T05:14:00;5.77;;;2.40;;
19679;SDS011;9989;48.962;9.182;2024-02-26T05:16:26;5.33;;;2.23;;
19679;SDS011;9989;48.962;9.182;2024-02-26T05:18:52;7.00;;;2.80;;
19679;SDS011;9989;48.962;9.182;2024-02-26T05:21:18;6.70;;;2.73;;
19679;SDS011;9989;48.962;9.182;2024-02-26T05:23:43;5.63;;;2.60;;
19679;SDS011;9989;48.962;9.182;2024-02-26T05:26:10;6.87;;;3.30;;
19679;SDS011;9989;48.962;9.182;2024-02-26T05:28:35;6.90;;;3.33;;
19679;SDS011;9989;48.962;9.182;2024-02-26T05:31:04;8.13;;;3.40;;
19679;SDS011;9989;48.962;9.182;2024-02-26T05:33:33;6.43;;;2.80;;
19679;SDS011;9989;48.962;9.182;2024-02-26T05:35:58;6.70;;;3.00;;
19679;SDS011;9989;48.962;9.182;2024-02-26T05:38:28;6.47;;;2.90;;
19679;SDS011;9989;48.962;9.182;2024-02-26T05:40:54;10.43;;;3.17;;
19679;SDS011;9989;48.962;9.182;2024-02-26T05:43:20;7.40;;;2.80;;
19679;SDS011;9989;48.962;9.182;2024-02-26T05:45:45;7.30;;;3.40;;
19679;SDS011;9989;48.962;9.182;2024-02-26T05:48:11;7.77;;;3.20;;
19679;SDS011;9989;48.962;9.182;2024-02-26T05:50:36;7.47;;;2.93;;
19679;SDS011;9989;48.962;9.182;2024-02-26T05:53:02;6.73;;;2.70;;
19679;SDS011;9989;48.962;9.182;2024-02-26T05:55:27;6.93;;;3.20;;
19679;SDS011;9989;48.962;9.182;2024-02-26T05:57:53;7.00;;;3.00;;
19679;SDS011;9989;48.962;9.182;2024-02-26T06:00:19;5.90;;;2.53;;
19679;SDS011;9989;48.962;9.182;2024-02-26T06:02:44;7.07;;;3.10;;
19679;SDS011;9989;48.962;9.182;2024-02-26T06:05:10;7.87;;;3.67;;
19679;SDS011;9989;48.962;9.182;2024-02-26T06:07:35;9.43;;;4.23;;
19679;SDS011;9989;48.962;9.182;2024-02-26T06:10:01;9.23;;;4.13;;
19679;SDS011;9989;48.962;9.182;2024-02-26T06:12:29;8.43;;;3.83;;
19679;SDS011;9989;48.962;9.182;2024-02-26T06:14:55;8.50;;;4.43;;
19679;SDS011;9989;48.962;9.182;2024-02-26T06:17:21;8.97;;;4.63;;
19679;SDS011;9989;48.962;9.182;2024-02-26T06:19:47;7.50;;;3.53;;
19679;SDS011;9989;48.962;9.182;2024-02-26T06:22:12;6.70;;;3.00;;
19679;SDS011;9989;48.962;9.182;2024-02-26T06:24:38;5.77;;;2.60;;
19679;SDS011;9989;48.962;9.182;2024-02-26T06:27:04;7.30;;;3.17;;
19679;SDS011;9989;48.962;9.182;2024-02-26T06:29:30;6.23;;;3.00;;
19679;SDS011;9989;48.962;9.182;2024-02-26T06:31:55;6.60;;;3.00;;
19679;SDS011;9989;48.962;9.182;2024-02-26T06:34:21;6.17;;;2.83;;
19679;SDS011;9989;48.962;9.182;2024-02-26T06:36:47;6.43;;;2.77;;
19679;SDS011;9989;48.962;9.182;2024-02-26T06:39:12;7.30;;;2.90;;
19679;SDS011;9989;48.962;9.182;2024-02-26T06:41:38;5.93;;;2.80;;
19679;SDS011;9989;48.962;9.182;2024-02-26T06:44:04;7.30;;;3.03;;
19679;SDS011;9989;48.962;9.182;2024-02-26T06:46:30;8.13;;;2.80;;
19679;SDS011;9989;48.962;9.182;2024-02-26T06:48:56;7.50;;;3.20;;
19679;SDS011;9989;48.962;9.182;2024-02-26T06:51:22;6.27;;;2.87;;
19679;SDS011;9989;48.962;9.182;2024-02-26T06:53:49;6.93;;;3.17;;
19679;SDS011;9989;48.962;9.182;2024-02-26T06:56:15;6.20;;;2.90;;
19679;SDS011;9989;48.962;9.182;2024-02-26T06:58:40;7.07;;;2.60;;
19679;SDS011;9989;48.962;9.182;2024-02-26T07:01:06;6.97;;;3.10;;
19679;SDS011;9989;48.962;9.182;2024-02-26T07:03:33;9.37;;;4.40;;
19679;SDS011;9989;48.962;9.182;2024-02-26T07:05:59;6.87;;;3.10;;
19679;SDS011;9989;48.962;9.182;2024-02-26T07:08:24;7.83;;;4.10;;
19679;SDS011;9989;48.962;9.182;2024-02-26T07:10:50;7.43;;;3.73;;
19679;SDS011;9989;48.962;9.182;2024-02-26T07:13:15;8.00;;;3.50;;
19679;SDS011;9989;48.962;9.182;2024-02-26T07:15:41;7.50;;;3.03;;
19679;SDS011;9989;48.962;9.182;2024-02-26T07:18:07;7.10;;;3.40;;
19679;SDS011;9989;48.962;9.182;2024-02-26T07:20:32;8.20;;;3.83;;
19679;SDS011;9989;48.962;9.182;2024-02-26T07:22:58;9.23;;;5.33;;
19679;SDS011;9989;48.962;9.182;2024-02-26T07:25:23;11.23;;;5.57;;
19679;SDS011;9989;48.962;9.182;2024-02-26T07:27:50;11.80;;;5.30;;
19679;SDS011;9989;48.962;9.182;2024-02-26T07:30:15;8.27;;;4.50;;
19679;SDS011;9989;48.962;9.182;2024-02-26T07:32:42;8.13;;;4.20;;
19679;SDS011;9989;48.962;9.182;2024-02-26T07:35:08;9.37;;;4.23;;
19679;SDS011;9989;48.962;9.182;2024-02-26T07:37:33;7.47;;;3.90;;
19679;SDS011;9989;48.962;9.182;2024-02-26T07:39:59;8.67;;;4.10;;
19679;SDS011;9989;48.962;9.182;2024-02-26T07:42:25;7.90;;;4.00;;
19679;SDS011;9989;48.962;9.182;2024-02-26T07:44:51;7.97;;;4.03;;
19679;SDS011;9989;48.962;9.182;2024-02-26T07:47:17;9.50;;;3.90;;
19679;SDS011;9989;48.962;9.182;2024-02-26T07:49:43;8.97;;;4.03;;
19679;SDS011;9989;48.962;9.182;2024-02-26T07:52:09;9.50;;;4.50;;
19679;SDS011;9989;48.962;9.182;2024-02-26T07:54:35;10.03;;;4.93;;
19679;SDS011;9989;48.962;9.182;2024-02-26T07:57:00;8.70;;;4.03;;
19679;SDS011;9989;48.962;9.182;2024-02-26T07:59:28;8.03;;;4.10;;
19679;SDS011;9989;48.962;9.182;2024-02-26T08:01:54;11.23;;;4.20;;
19679;SDS011;9989;48.962;9.182;2024-02-26T08:04:19;9.30;;;4.00;;
19679;SDS011;9989;48.962;9.182;2024-02-26T08:06:45;10.23;;;4.10;;
19679;SDS011;9989;48.962;9.182;2024-02-26T08:09:10;8.60;;;3.87;;
19679;SDS011;9989;48.962;9.182;2024-02-26T08:11:37;7.80;;;3.53;;
19679;SDS011;9989;48.962;9.182;2024-02-26T08:14:04;7.37;;;3.77;;
19679;SDS011;9989;48.962;9.182;2024-02-26T08:16:30;8.83;;;4.17;;
19679;SDS011;9989;48.962;9.182;2024-02-26T08:18:55;8.03;;;3.90;;
19679;SDS011;9989;48.962;9.182;2024-02-26T08:21:21;8.13;;;3.73;;
19679;SDS011;9989;48.962;9.182;2024-02-26T08:23:47;8.57;;;3.97;;
19679;SDS011;9989;48.962;9.182;2024-02-26T08:26:12;7.40;;;3.77;;
19679;SDS011;9989;48.962;9.182;2024-02-26T08:28:38;10.30;;;4.10;;
19679;SDS011;9989;48.962;9.182;2024-02-26T08:31:03;8.00;;;4.10;;
19679;SDS011;9989;48.962;9.182;2024-02-26T08:33:30;8.77;;;3.93;;
19679;SDS011;9989;48.962;9.182;2024-02-26T08:35:55;7.80;;;3.80;;
19679;SDS011;9989;48.962;9.182;2024-02-26T08:38:21;9.53;;;4.07;;
19679;SDS011;9989;48.962;9.182;2024-02-26T08:40:48;8.23;;;3.67;;
19679;SDS011;9989;48.962;9.182;2024-02-26T08:43:13;10.93;;;3.90;;
19679;SDS011;9989;48.962;9.182;2024-02-26T08:45:39;7.50;;;3.47;;
19679;SDS011;9989;48.962;9.182;2024-02-26T08:48:05;6.00;;;3.03;;
19679;SDS011;9989;48.962;9.182;2024-02-26T08:50:31;9.60;;;3.40;;
19679;SDS011;9989;48.962;9.182;2024-02-26T08:52:56;6.83;;;3.10;;
19679;SDS011;9989;48.962;9.182;2024-02-26T08:55:22;7.77;;;3.23;;
19679;SDS011;9989;48.962;9.182;2024-02-26T08:57:48;9.40;;;3.10;;
19679;SDS011;9989;48.962;9.182;2024-02-26T09:00:13;12.93;;;5.50;;
19679;SDS011;9989;48.962;9.182;2024-02-26T09:02:40;10.87;;;4.73;;
19679;SDS011;9989;48.962;9.182;2024-02-26T09:05:08;11.07;;;4.83;;
19679;SDS011;9989;48.962;9.182;2024-02-26T09:07:35;10.70;;;4.40;;
19679;SDS011;9989;48.962;9.182;2024-02-26T09:10:01;10.20;;;4.00;;
19679;SDS011;9989;48.962;9.182;2024-02-26T09:12:26;9.87;;;4.03;;
19679;SDS011;9989;48.962;9.182;2024-02-26T09:14:52;9.60;;;4.30;;
19679;SDS011;9989;48.962;9.182;2024-02-26T09:17:18;10.80;;;4.77;;
19679;SDS011;9989;48.962;9.182;2024-02-26T09:19:43;8.93;;;4.43;;
19679;SDS011;9989;48.962;9.182;2024-02-26T09:22:09;11.77;;;4.53;;
19679;SDS011;9989;48.962;9.182;2024-02-26T09:24:35;10.70;;;4.30;;
19679;SDS011;9989;48.962;9.182;2024-02-26T09:27:01;8.97;;;3.80;;
19679;SDS011;9989;48.962;9.182;2024-02-26T09:29:27;13.27;;;4.70;;
19679;SDS011;9989;48.962;9.182;2024-02-26T09:31:52;12.47;;;5.60;;
19679;SDS011;9989;48.962;9.182;2024-02-26T09:34:18;11.17;;;6.30;;
19679;SDS011;9989;48.962;9.182;2024-02-26T09:36:43;9.53;;;5.63;;
19679;SDS011;9989;48.962;9.182;2024-02-26T09:39:09;8.70;;;4.90;;
19679;SDS011;9989;48.962;9.182;2024-02-26T09:41:36;8.70;;;4.47;;
19679;SDS011;9989;48.962;9.182;2024-02-26T09:44:02;8.83;;;4.00;;
19679;SDS011;9989;48.962;9.182;2024-02-26T09:46:30;7.87;;;3.50;;
19679;SDS011;9989;48.962;9.182;2024-02-26T09:48:56;7.33;;;3.20;;
19679;SDS011;9989;48.962;9.182;2024-02-26T09:51:25;7.77;;;3.30;;
19679;SDS011;9989;48.962;9.182;2024-02-26T09:53:51;7.27;;;3.23;;
19679;SDS011;9989;48.962;9.182;2024-02-26T09:56:18;7.10;;;3.03;;
19679;SDS011;9989;48.962;9.182;2024-02-26T09:58:44;6.53;;;2.67;;
19679;SDS011;9989;48.962;9.182;2024-02-26T10:01:17;6.17;;;2.80;;
19679;SDS011;9989;48.962;9.182;2024-02-26T10:03:43;6.23;;;2.70;;
19679;SDS011;9989;48.962;9.182;2024-02-26T10:06:11;6.40;;;2.90;;
19679;SDS011;9989;48.962;9.182;2024-02-26T10:08:37;5.83;;;2.50;;
19679;SDS011;9989;48.962;9.182;2024-02-26T10:11:09;5.97;;;2.50;;
19679;SDS011;9989;48.962;9.182;2024-02-26T10:13:35;8.13;;;3.43;;
19679;SDS011;9989;48.962;9.182;2024-02-26T10:16:02;7.10;;;2.90;;
19679;SDS011;9989;48.962;9.182;2024-02-26T10:18:44;8.47;;;3.00;;
19679;SDS011;9989;48.962;9.182;2024-02-26T10:21:15;6.80;;;2.80;;
19679;SDS011;9989;48.962;9.182;2024-02-26T10:23:43;6.73;;;2.60;;
19679;SDS011;9989;48.962;9.182;2024-02-26T10:26:10;6.87;;;2.80;;
19679;SDS011;9989;48.962;9.182;2024-02-26T10:28:36;8.10;;;2.90;;
19679;SDS011;9989;48.962;9.182;2024-02-26T10:31:02;8.20;;;2.93;;
19679;SDS011;9989;48.962;9.182;2024-02-26T10:33:27;7.20;;;3.00;;
19679;SDS011;9989;48.962;9.182;2024-02-26T10:35:53;6.27;;;2.57;;
19679;SDS011;9989;48.962;9.182;2024-02-26T10:38:19;6.00;;;2.30;;
19679;SDS011;9989;48.962;9.182;2024-02-26T10:40:46;7.87;;;2.27;;
19679;SDS011;9989;48.962;9.182;2024-02-26T10:43:13;5.70;;;2.40;;
19679;SDS011;9989;48.962;9.182;2024-02-26T10:45:41;5.93;;;2.30;;
19679;SDS011;9989;48.962;9.182;2024-02-26T10:48:13;8.97;;;3.00;;
19679;SDS011;9989;48.962;9.182;2024-02-26T10:50:39;5.17;;;2.30;;
19679;SDS011;9989;48.962;9.182;2024-02-26T10:53:07;4.97;;;2.03;;
19679;SDS011;9989;48.962;9.182;2024-02-26T10:55:41;5.87;;;2.60;;
19679;SDS011;9989;48.962;9.182;2024-02-26T10:58:10;4.47;;;2.00;;
19679;SDS011;9989;48.962;9.182;2024-02-26T11:00:37;5.27;;;2.03;;
19679;SDS011;9989;48.962;9.182;2024-02-26T11:03:04;5.50;;;1.97;;
19679;SDS011;9989;48.962;9.182;2024-02-26T11:05:31;5.37;;;1.97;;
19679;SDS011;9989;48.962;9.182;2024-02-26T11:07:58;7.07;;;2.03;;
19679;SDS011;9989;48.962;9.182;2024-02-26T11:10:25;5.77;;;2.27;;
19679;SDS011;9989;48.962;9.182;2024-02-26T11:12:54;5.97;;;2.20;;
19679;SDS011;9989;48.962;9.182;2024-02-26T11:15:23;5.03;;;2.00;;
19679;SDS011;9989;48.962;9.182;2024-02-26T11:17:49;7.67;;;2.50;;
19679;SDS011;9989;48.962;9.182;2024-02-26T11:20:17;5.47;;;2.30;;
19679;SDS011;9989;48.962;9.182;2024-02-26T11:22:44;4.33;;;2.00;;
19679;SDS011;9989;48.962;9.182;2024-02-26T11:25:09;5.57;;;2.07;;
19679;SDS011;9989;48.962;9.182;2024-02-26T11:27:39;5.63;;;2.27;;
19679;SDS011;9989;48.962;9.182;2024-02-26T11:30:10;4.37;;;1.93;;
19679;SDS011;9989;48.962;9.182;2024-02-26T11:32:37;4.73;;;1.90;;
19679;SDS011;9989;48.962;9.182;2024-02-26T11:35:04;4.63;;;2.00;;
19679;SDS011;9989;48.962;9.182;2024-02-26T11:37:30;5.10;;;2.13;;
19679;SDS011;9989;48.962;9.182;2024-02-26T11:39:58;5.87;;;2.03;;
19679;SDS011;9989;48.962;9.182;2024-02-26T11:42:26;5.40;;;2.20;;
19679;SDS011;9989;48.962;9.182;2024-02-26T11:44:51;5.10;;;2.20;;
19679;SDS011;9989;48.962;9.182;2024-02-26T11:47:21;6.07;;;2.30;;
19679;SDS011;9989;48.962;9.182;2024-02-26T11:49:47;4.83;;;2.30;;
19679;SDS011;9989;48.962;9.182;2024-02-26T11:52:14;6.80;;;2.57;;
19679;SDS011;9989;48.962;9.182;2024-02-26T11:54:44;5.63;;;2.43;;
19679;SDS011;9989;48.962;9.182;2024-02-26T11:59:54;3.97;;;1.77;;
19679;SDS011;9989;48.962;9.182;2024-02-26T12:05:12;4.37;;;2.03;;
19679;SDS011;9989;48.962;9.182;2024-02-26T12:07:49;4.87;;;2.00;;
19679;SDS011;9989;48.962;9.182;2024-02-26T12:15:38;3.53;;;1.70;;
19679;SDS011;9989;48.962;9.182;2024-02-26T12:18:06;4.53;;;1.80;;
19679;SDS011;9989;48.962;9.182;2024-02-26T12:20:34;4.17;;;1.80;;
19679;SDS011;9989;48.962;9.182;2024-02-26T12:23:00;5.20;;;1.87;;
19679;SDS011;9989;48.962;9.182;2024-02-26T12:25:28;5.17;;;1.70;;
19679;SDS011;9989;48.962;9.182;2024-02-26T12:27:55;5.33;;;2.00;;
19679;SDS011;9989;48.962;9.182;2024-02-26T12:30:21;6.33;;;2.13;;
19679;SDS011;9989;48.962;9.182;2024-02-26T12:32:50;3.60;;;1.60;;
19679;SDS011;9989;48.962;9.182;2024-02-26T12:35:21;3.67;;;1.63;;
19679;SDS011;9989;48.962;9.182;2024-02-26T12:37:47;4.43;;;1.70;;
19679;SDS011;9989;48.962;9.182;2024-02-26T12:40:13;4.53;;;1.90;;
19679;SDS011;9989;48.962;9.182;2024-02-26T12:42:39;4.70;;;1.80;;
19679;SDS011;9989;48.962;9.182;2024-02-26T12:45:09;3.83;;;1.60;;
19679;SDS011;9989;48.962;9.182;2024-02-26T12:47:39;3.73;;;1.60;;
19679;SDS011;9989;48.962;9.182;2024-02-26T12:50:07;3.40;;;1.30;;
19679;SDS011;9989;48.962;9.182;2024-02-26T12:52:33;4.87;;;2.07;;
19679;SDS011;9989;48.962;9.182;2024-02-26T12:55:02;3.70;;;1.60;;
19679;SDS011;9989;48.962;9.182;2024-02-26T12:57:30;3.73;;;1.63;;
19679;SDS011;9989;48.962;9.182;2024-02-26T12:59:57;4.07;;;1.50;;
19679;SDS011;9989;48.962;9.182;2024-02-26T13:02:24;5.30;;;1.90;;
19679;SDS011;9989;48.962;9.182;2024-02-26T13:04:50;4.17;;;1.70;;
19679;SDS011;9989;48.962;9.182;2024-02-26T13:07:16;6.57;;;1.70;;
19679;SDS011;9989;48.962;9.182;2024-02-26T13:09:42;3.67;;;1.80;;
19679;SDS011;9989;48.962;9.182;2024-02-26T13:12:08;4.03;;;1.67;;
19679;SDS011;9989;48.962;9.182;2024-02-26T13:14:34;4.47;;;1.70;;
19679;SDS011;9989;48.962;9.182;2024-02-26T13:17:00;4.20;;;1.63;;
19679;SDS011;9989;48.962;9.182;2024-02-26T13:19:27;3.53;;;1.50;;
19679;SDS011;9989;48.962;9.182;2024-02-26T13:21:53;3.27;;;1.40;;
19679;SDS011;9989;48.962;9.182;2024-02-26T13:24:19;3.10;;;1.50;;
19679;SDS011;9989;48.962;9.182;2024-02-26T13:26:45;3.13;;;1.30;;
19679;SDS011;9989;48.962;9.182;2024-02-26T13:29:20;2.40;;;1.20;;
19679;SDS011;9989;48.962;9.182;2024-02-26T13:31:46;3.07;;;1.00;;
19679;SDS011;9989;48.962;9.182;2024-02-26T13:34:22;1.87;;;0.80;;
19679;SDS011;9989;48.962;9.182;2024-02-26T13:36:52;3.00;;;1.03;;
19679;SDS011;9989;48.962;9.182;2024-02-26T13:39:22;0.93;;;0.70;;
19679;SDS011;9989;48.962;9.182;2024-02-26T13:41:52;2.20;;;0.77;;
19679;SDS011;9989;48.962;9.182;2024-02-26T13:44:19;0.53;;;0.50;;
19679;SDS011;9989;48.962;9.182;2024-02-26T13:46:45;1.33;;;0.70;;
19679;SDS011;9989;48.962;9.182;2024-02-26T13:49:11;1.60;;;1.00;;
19679;SDS011;9989;48.962;9.182;2024-02-26T13:51:37;1.57;;;0.77;;
19679;SDS011;9989;48.962;9.182;2024-02-26T13:54:03;1.40;;;0.60;;
19679;SDS011;9989;48.962;9.182;2024-02-26T13:56:29;0.97;;;0.60;;
19679;SDS011;9989;48.962;9.182;2024-02-26T13:58:56;1.97;;;0.70;;
19679;SDS011;9989;48.962;9.182;2024-02-26T14:01:21;2.90;;;0.77;;
19679;SDS011;9989;48.962;9.182;2024-02-26T14:03:47;1.03;;;0.60;;
19679;SDS011;9989;48.962;9.182;2024-02-26T14:06:13;0.87;;;0.50;;
19679;SDS011;9989;48.962;9.182;2024-02-26T14:08:39;0.97;;;0.60;;
19679;SDS011;9989;48.962;9.182;2024-02-26T14:11:04;0.60;;;0.40;;
19679;SDS011;9989;48.962;9.182;2024-02-26T14:13:31;0.67;;;0.40;;
19679;SDS011;9989;48.962;9.182;2024-02-26T14:15:56;1.37;;;0.60;;
19679;SDS011;9989;48.962;9.182;2024-02-26T14:18:22;1.07;;;0.50;;
19679;SDS011;9989;48.962;9.182;2024-02-26T14:20:48;0.53;;;0.40;;
19679;SDS011;9989;48.962;9.182;2024-02-26T14:23:13;0.37;;;0.37;;
19679;SDS011;9989;48.962;9.182;2024-02-26T14:25:39;0.87;;;0.50;;
19679;SDS011;9989;48.962;9.182;2024-02-26T14:28:05;0.30;;;0.30;;
19679;SDS011;9989;48.962;9.182;2024-02-26T14:30:31;0.63;;;0.50;;
19679;SDS011;9989;48.962;9.182;2024-02-26T14:32:57;0.87;;;0.50;;
19679;SDS011;9989;48.962;9.182;2024-02-26T14:35:23;0.73;;;0.40;;
19679;SDS011;9989;48.962;9.182;2024-02-26T14:37:49;0.73;;;0.40;;
19679;SDS011;9989;48.962;9.182;2024-02-26T14:40:15;0.30;;;0.30;;
19679;SDS011;9989;48.962;9.182;2024-02-26T14:42:41;0.57;;;0.37;;
19679;SDS011;9989;48.962;9.182;2024-02-26T14:45:07;0.30;;;0.30;;
19679;SDS011;9989;48.962;9.182;2024-02-26T14:47:37;0.53;;;0.40;;
19679;SDS011;9989;48.962;9.182;2024-02-26T14:50:03;1.63;;;0.53;;
19679;SDS011;9989;48.962;9.182;2024-02-26T14:52:29;1.47;;;0.50;;
19679;SDS011;9989;48.962;9.182;2024-02-26T14:54:55;0.50;;;0.43;;
19679;SDS011;9989;48.962;9.182;2024-02-26T14:57:20;0.40;;;0.40;;
19679;SDS011;9989;48.962;9.182;2024-02-26T14:59:46;1.07;;;0.47;;
19679;SDS011;9989;48.962;9.182;2024-02-26T15:02:13;1.30;;;0.50;;
19679;SDS011;9989;48.962;9.182;2024-02-26T15:04:39;1.50;;;0.50;;
19679;SDS011;9989;48.962;9.182;2024-02-26T15:07:04;0.83;;;0.60;;
19679;SDS011;9989;48.962;9.182;2024-02-26T15:09:30;2.37;;;0.60;;